FEFT

Berbérati Airport

Berbérati, Central African Republic
METAR FEFT 151000Z 28006KT 9999 BKN022 BKN300 30/23 Q1010
Observed Flight Rules
Dec-15 @ 10:00 UTC (4 hours ago) Marginal Visual Flight Rules
Wind Visibility Clouds
280° at 6 knots 10,000+ meters
  • Broken at 2,200' AGL
  • Broken at 30,000' AGL
Temperatures Readings
Current 30°C / 86°F
Dewpoint 23°C / 73°F
Humidity 66%
Altimeter 29.82" Hg
Pressure 1010 hPa
Elevation 583
METAR FEFT 151000Z 28006KT 9999 BKN022 BKN300 30/23 Q1010
Observed Flight Rules
Dec-15 @ 10:00 UTC
(4 hours ago)
MVFR
Wind Visibility
280° at 6 knots 10,000+ meters
Clouds
  • Broken at 2,200' AGL
  • Broken at 30,000' AGL
Temperature Dewpoint
30°C / 86°F 23°C / 73°F
Humidity Altimeter Pressure
66% 29.82" Hg 1010 hPa